Terminal Aerodrome Forecast
Issued by NWS

Home | Current Version | Previous Version | Text Only | Print | Product List | Glossary On
Versions: 1 2 3 4 5 6 7 8 9 10 11 12 13
000
FTUS44 KTSA 030520
TAFRVS
TAF
KRVS 030520Z 0306/0406 VRB04KT P6SM VCTS SCT050CB BKN100
     FM030900 VRB04KT P6SM SCT050 BKN100
     FM031300 VRB04KT P6SM SCT025 BKN040 PROB30 0315/0318 -TSRA
      BKN025CB
     FM031800 34006KT P6SM VCTS BKN050CB PROB30 0321/0402 5SM -TSRA
      BKN040CB
     FM040200 03005KT P6SM BKN100=

USA.gov is the U.S. government's official web portal to all federal, state and local government web resources and services.